sensor_id;sensor_type;location;lat;lon;timestamp;P1;durP1;ratioP1;P2;durP2;ratioP2
31724;SDS011;18306;40.960;14.836;2023-05-14T00:00:53;5.80;;;2.72;;
31724;SDS011;18306;40.960;14.836;2023-05-14T00:03:20;4.65;;;2.92;;
31724;SDS011;18306;40.960;14.836;2023-05-14T00:05:47;6.07;;;3.13;;
31724;SDS011;18306;40.960;14.836;2023-05-14T00:08:14;4.07;;;3.25;;
31724;SDS011;18306;40.960;14.836;2023-05-14T00:10:42;4.40;;;3.35;;
31724;SDS011;18306;40.960;14.836;2023-05-14T00:13:09;5.45;;;3.13;;
31724;SDS011;18306;40.960;14.836;2023-05-14T00:15:36;8.10;;;2.63;;
31724;SDS011;18306;40.960;14.836;2023-05-14T00:18:03;15.18;;;3.67;;
31724;SDS011;18306;40.960;14.836;2023-05-14T00:20:31;13.00;;;3.40;;
31724;SDS011;18306;40.960;14.836;2023-05-14T00:22:58;5.35;;;3.05;;
31724;SDS011;18306;40.960;14.836;2023-05-14T00:25:25;4.65;;;3.10;;
31724;SDS011;18306;40.960;14.836;2023-05-14T00:27:52;3.90;;;2.85;;
31724;SDS011;18306;40.960;14.836;2023-05-14T00:30:19;8.13;;;3.70;;
31724;SDS011;18306;40.960;14.836;2023-05-14T00:32:46;5.03;;;3.05;;
31724;SDS011;18306;40.960;14.836;2023-05-14T00:35:14;2.67;;;2.42;;
31724;SDS011;18306;40.960;14.836;2023-05-14T00:37:41;10.60;;;3.83;;
31724;SDS011;18306;40.960;14.836;2023-05-14T00:40:08;10.98;;;3.40;;
31724;SDS011;18306;40.960;14.836;2023-05-14T00:42:38;4.63;;;2.75;;
31724;SDS011;18306;40.960;14.836;2023-05-14T00:45:06;10.55;;;4.68;;
31724;SDS011;18306;40.960;14.836;2023-05-14T00:47:33;6.30;;;3.30;;
31724;SDS011;18306;40.960;14.836;2023-05-14T00:50:02;6.70;;;3.35;;
31724;SDS011;18306;40.960;14.836;2023-05-14T00:52:30;4.78;;;3.20;;
31724;SDS011;18306;40.960;14.836;2023-05-14T00:54:57;4.35;;;2.90;;
31724;SDS011;18306;40.960;14.836;2023-05-14T00:57:25;4.13;;;2.92;;
31724;SDS011;18306;40.960;14.836;2023-05-14T00:59:52;4.97;;;3.40;;
31724;SDS011;18306;40.960;14.836;2023-05-14T01:02:19;5.15;;;2.67;;
31724;SDS011;18306;40.960;14.836;2023-05-14T01:04:46;10.43;;;2.53;;
31724;SDS011;18306;40.960;14.836;2023-05-14T01:07:27;5.47;;;3.53;;
31724;SDS011;18306;40.960;14.836;2023-05-14T01:10:07;4.28;;;3.08;;
31724;SDS011;18306;40.960;14.836;2023-05-14T01:15:39;6.32;;;3.33;;
31724;SDS011;18306;40.960;14.836;2023-05-14T01:18:11;7.45;;;3.65;;
31724;SDS011;18306;40.960;14.836;2023-05-14T01:20:41;7.07;;;3.70;;
31724;SDS011;18306;40.960;14.836;2023-05-14T01:23:09;12.90;;;3.63;;
31724;SDS011;18306;40.960;14.836;2023-05-14T01:25:37;5.10;;;2.95;;
31724;SDS011;18306;40.960;14.836;2023-05-14T01:30:52;6.80;;;3.00;;
31724;SDS011;18306;40.960;14.836;2023-05-14T01:33:29;8.05;;;3.30;;
31724;SDS011;18306;40.960;14.836;2023-05-14T01:35:59;3.75;;;2.92;;
31724;SDS011;18306;40.960;14.836;2023-05-14T01:38:27;7.13;;;3.80;;
31724;SDS011;18306;40.960;14.836;2023-05-14T01:40:56;8.02;;;3.03;;
31724;SDS011;18306;40.960;14.836;2023-05-14T01:43:25;9.20;;;2.67;;
31724;SDS011;18306;40.960;14.836;2023-05-14T01:45:53;4.88;;;3.17;;
31724;SDS011;18306;40.960;14.836;2023-05-14T01:48:20;5.45;;;3.00;;
31724;SDS011;18306;40.960;14.836;2023-05-14T01:50:48;4.65;;;3.00;;
31724;SDS011;18306;40.960;14.836;2023-05-14T01:53:15;3.90;;;2.60;;
31724;SDS011;18306;40.960;14.836;2023-05-14T01:55:42;5.63;;;2.83;;
31724;SDS011;18306;40.960;14.836;2023-05-14T01:58:09;10.82;;;3.20;;
31724;SDS011;18306;40.960;14.836;2023-05-14T02:00:36;13.20;;;3.55;;
31724;SDS011;18306;40.960;14.836;2023-05-14T02:03:03;3.53;;;2.50;;
31724;SDS011;18306;40.960;14.836;2023-05-14T02:05:30;7.85;;;2.70;;
31724;SDS011;18306;40.960;14.836;2023-05-14T02:07:57;5.78;;;2.78;;
31724;SDS011;18306;40.960;14.836;2023-05-14T02:10:24;3.90;;;2.63;;
31724;SDS011;18306;40.960;14.836;2023-05-14T02:12:52;16.23;;;4.13;;
31724;SDS011;18306;40.960;14.836;2023-05-14T02:15:19;6.05;;;3.03;;
31724;SDS011;18306;40.960;14.836;2023-05-14T02:17:46;9.70;;;3.40;;
31724;SDS011;18306;40.960;14.836;2023-05-14T02:20:13;6.25;;;2.75;;
31724;SDS011;18306;40.960;14.836;2023-05-14T02:22:41;4.35;;;2.60;;
31724;SDS011;18306;40.960;14.836;2023-05-14T02:25:10;4.05;;;2.20;;
31724;SDS011;18306;40.960;14.836;2023-05-14T02:27:38;12.65;;;3.05;;
31724;SDS011;18306;40.960;14.836;2023-05-14T02:30:05;7.88;;;3.53;;
31724;SDS011;18306;40.960;14.836;2023-05-14T02:32:32;5.40;;;3.33;;
31724;SDS011;18306;40.960;14.836;2023-05-14T02:35:00;8.68;;;2.60;;
31724;SDS011;18306;40.960;14.836;2023-05-14T02:37:27;5.40;;;3.50;;
31724;SDS011;18306;40.960;14.836;2023-05-14T02:39:54;6.70;;;3.10;;
31724;SDS011;18306;40.960;14.836;2023-05-14T02:42:22;10.65;;;4.35;;
31724;SDS011;18306;40.960;14.836;2023-05-14T02:44:52;6.43;;;3.78;;
31724;SDS011;18306;40.960;14.836;2023-05-14T02:47:19;8.55;;;3.47;;
31724;SDS011;18306;40.960;14.836;2023-05-14T02:49:46;15.75;;;3.92;;
31724;SDS011;18306;40.960;14.836;2023-05-14T02:52:14;11.80;;;3.80;;
31724;SDS011;18306;40.960;14.836;2023-05-14T02:54:41;6.72;;;3.83;;
31724;SDS011;18306;40.960;14.836;2023-05-14T02:57:08;6.63;;;3.10;;
31724;SDS011;18306;40.960;14.836;2023-05-14T02:59:35;7.75;;;3.75;;
31724;SDS011;18306;40.960;14.836;2023-05-14T03:02:02;22.02;;;3.78;;
31724;SDS011;18306;40.960;14.836;2023-05-14T03:04:29;6.85;;;2.95;;
31724;SDS011;18306;40.960;14.836;2023-05-14T03:06:56;10.75;;;3.28;;
31724;SDS011;18306;40.960;14.836;2023-05-14T03:09:23;12.85;;;3.38;;
31724;SDS011;18306;40.960;14.836;2023-05-14T03:11:50;7.15;;;3.58;;
31724;SDS011;18306;40.960;14.836;2023-05-14T03:14:17;3.88;;;2.40;;
31724;SDS011;18306;40.960;14.836;2023-05-14T03:16:44;11.07;;;3.22;;
31724;SDS011;18306;40.960;14.836;2023-05-14T03:19:14;4.28;;;3.00;;
31724;SDS011;18306;40.960;14.836;2023-05-14T03:21:43;11.63;;;3.38;;
31724;SDS011;18306;40.960;14.836;2023-05-14T03:24:11;11.75;;;3.60;;
31724;SDS011;18306;40.960;14.836;2023-05-14T03:26:38;4.97;;;2.70;;
31724;SDS011;18306;40.960;14.836;2023-05-14T03:29:06;4.97;;;2.95;;
31724;SDS011;18306;40.960;14.836;2023-05-14T03:31:34;6.93;;;2.63;;
31724;SDS011;18306;40.960;14.836;2023-05-14T03:34:02;7.35;;;3.08;;
31724;SDS011;18306;40.960;14.836;2023-05-14T03:36:30;10.23;;;3.70;;
31724;SDS011;18306;40.960;14.836;2023-05-14T03:39:11;11.40;;;3.33;;
31724;SDS011;18306;40.960;14.836;2023-05-14T03:41:53;11.00;;;3.25;;
31724;SDS011;18306;40.960;14.836;2023-05-14T03:44:27;6.15;;;3.38;;
31724;SDS011;18306;40.960;14.836;2023-05-14T03:47:01;10.85;;;4.38;;
31724;SDS011;18306;40.960;14.836;2023-05-14T03:49:28;10.70;;;3.28;;
31724;SDS011;18306;40.960;14.836;2023-05-14T03:51:56;7.50;;;3.28;;
31724;SDS011;18306;40.960;14.836;2023-05-14T03:54:24;10.27;;;3.20;;
31724;SDS011;18306;40.960;14.836;2023-05-14T03:56:52;7.55;;;2.85;;
31724;SDS011;18306;40.960;14.836;2023-05-14T03:59:19;17.80;;;3.25;;
31724;SDS011;18306;40.960;14.836;2023-05-14T04:01:46;11.73;;;3.28;;
31724;SDS011;18306;40.960;14.836;2023-05-14T04:04:13;12.60;;;3.70;;
31724;SDS011;18306;40.960;14.836;2023-05-14T04:06:40;5.60;;;2.88;;
31724;SDS011;18306;40.960;14.836;2023-05-14T04:09:07;20.98;;;6.82;;
31724;SDS011;18306;40.960;14.836;2023-05-14T04:11:35;6.47;;;3.70;;
31724;SDS011;18306;40.960;14.836;2023-05-14T04:14:03;11.25;;;3.33;;
31724;SDS011;18306;40.960;14.836;2023-05-14T04:16:30;5.35;;;2.95;;
31724;SDS011;18306;40.960;14.836;2023-05-14T04:18:57;6.90;;;3.70;;
31724;SDS011;18306;40.960;14.836;2023-05-14T04:21:25;9.63;;;3.90;;
31724;SDS011;18306;40.960;14.836;2023-05-14T04:23:52;10.93;;;3.55;;
31724;SDS011;18306;40.960;14.836;2023-05-14T04:26:19;6.20;;;2.85;;
31724;SDS011;18306;40.960;14.836;2023-05-14T04:28:46;9.05;;;3.45;;
31724;SDS011;18306;40.960;14.836;2023-05-14T04:31:14;10.00;;;3.28;;
31724;SDS011;18306;40.960;14.836;2023-05-14T04:33:41;6.13;;;2.83;;
31724;SDS011;18306;40.960;14.836;2023-05-14T04:36:08;14.02;;;3.30;;
31724;SDS011;18306;40.960;14.836;2023-05-14T04:38:35;7.72;;;3.25;;
31724;SDS011;18306;40.960;14.836;2023-05-14T04:41:02;11.05;;;2.78;;
31724;SDS011;18306;40.960;14.836;2023-05-14T04:43:29;5.32;;;3.80;;
31724;SDS011;18306;40.960;14.836;2023-05-14T04:45:56;2.88;;;2.38;;
31724;SDS011;18306;40.960;14.836;2023-05-14T04:48:23;6.25;;;3.30;;
31724;SDS011;18306;40.960;14.836;2023-05-14T04:50:50;11.55;;;3.08;;
31724;SDS011;18306;40.960;14.836;2023-05-14T04:53:18;6.53;;;3.13;;
31724;SDS011;18306;40.960;14.836;2023-05-14T04:55:45;4.60;;;3.15;;
31724;SDS011;18306;40.960;14.836;2023-05-14T04:58:12;8.18;;;3.22;;
31724;SDS011;18306;40.960;14.836;2023-05-14T05:00:39;3.47;;;3.15;;
31724;SDS011;18306;40.960;14.836;2023-05-14T05:03:06;7.68;;;3.72;;
31724;SDS011;18306;40.960;14.836;2023-05-14T05:05:34;4.70;;;2.85;;
31724;SDS011;18306;40.960;14.836;2023-05-14T05:08:00;8.68;;;3.25;;
31724;SDS011;18306;40.960;14.836;2023-05-14T05:10:28;7.20;;;2.40;;
31724;SDS011;18306;40.960;14.836;2023-05-14T05:12:55;4.78;;;2.75;;
31724;SDS011;18306;40.960;14.836;2023-05-14T05:15:22;12.32;;;3.33;;
31724;SDS011;18306;40.960;14.836;2023-05-14T05:17:49;5.32;;;2.83;;
31724;SDS011;18306;40.960;14.836;2023-05-14T05:20:16;15.88;;;5.43;;
31724;SDS011;18306;40.960;14.836;2023-05-14T05:22:43;5.65;;;3.35;;
31724;SDS011;18306;40.960;14.836;2023-05-14T05:25:10;4.80;;;2.50;;
31724;SDS011;18306;40.960;14.836;2023-05-14T05:27:38;15.38;;;6.35;;
31724;SDS011;18306;40.960;14.836;2023-05-14T05:30:05;7.57;;;3.42;;
31724;SDS011;18306;40.960;14.836;2023-05-14T05:32:33;6.38;;;3.40;;
31724;SDS011;18306;40.960;14.836;2023-05-14T05:35:01;6.63;;;4.15;;
31724;SDS011;18306;40.960;14.836;2023-05-14T05:37:29;7.43;;;3.53;;
31724;SDS011;18306;40.960;14.836;2023-05-14T05:39:56;6.32;;;4.63;;
31724;SDS011;18306;40.960;14.836;2023-05-14T05:42:23;7.53;;;4.05;;
31724;SDS011;18306;40.960;14.836;2023-05-14T05:44:51;12.98;;;4.03;;
31724;SDS011;18306;40.960;14.836;2023-05-14T05:47:18;5.20;;;3.60;;
31724;SDS011;18306;40.960;14.836;2023-05-14T05:49:45;7.53;;;2.88;;
31724;SDS011;18306;40.960;14.836;2023-05-14T05:52:12;7.22;;;3.80;;
31724;SDS011;18306;40.960;14.836;2023-05-14T05:54:39;5.47;;;2.58;;
31724;SDS011;18306;40.960;14.836;2023-05-14T05:57:06;3.53;;;2.28;;
31724;SDS011;18306;40.960;14.836;2023-05-14T05:59:33;4.43;;;2.70;;
31724;SDS011;18306;40.960;14.836;2023-05-14T06:02:01;5.05;;;2.38;;
31724;SDS011;18306;40.960;14.836;2023-05-14T06:04:28;2.83;;;1.48;;
31724;SDS011;18306;40.960;14.836;2023-05-14T06:06:55;3.53;;;1.73;;
31724;SDS011;18306;40.960;14.836;2023-05-14T06:09:22;3.90;;;2.22;;
31724;SDS011;18306;40.960;14.836;2023-05-14T06:11:49;7.10;;;2.03;;
31724;SDS011;18306;40.960;14.836;2023-05-14T06:14:16;4.55;;;2.25;;
31724;SDS011;18306;40.960;14.836;2023-05-14T06:16:43;6.68;;;2.50;;
31724;SDS011;18306;40.960;14.836;2023-05-14T06:19:11;6.53;;;1.92;;
31724;SDS011;18306;40.960;14.836;2023-05-14T06:21:38;9.50;;;1.80;;
31724;SDS011;18306;40.960;14.836;2023-05-14T06:24:05;9.07;;;2.55;;
31724;SDS011;18306;40.960;14.836;2023-05-14T06:26:32;2.90;;;1.85;;
31724;SDS011;18306;40.960;14.836;2023-05-14T06:28:59;2.47;;;1.50;;
31724;SDS011;18306;40.960;14.836;2023-05-14T06:31:26;5.43;;;1.90;;
31724;SDS011;18306;40.960;14.836;2023-05-14T06:33:53;10.52;;;2.65;;
31724;SDS011;18306;40.960;14.836;2023-05-14T06:36:20;5.78;;;3.15;;
31724;SDS011;18306;40.960;14.836;2023-05-14T06:38:47;8.57;;;2.80;;
31724;SDS011;18306;40.960;14.836;2023-05-14T06:41:15;6.85;;;2.90;;
31724;SDS011;18306;40.960;14.836;2023-05-14T06:43:43;20.60;;;4.20;;
31724;SDS011;18306;40.960;14.836;2023-05-14T06:46:10;18.52;;;3.50;;
31724;SDS011;18306;40.960;14.836;2023-05-14T06:48:37;16.92;;;3.00;;
31724;SDS011;18306;40.960;14.836;2023-05-14T06:51:04;14.52;;;3.83;;
31724;SDS011;18306;40.960;14.836;2023-05-14T06:53:31;18.60;;;4.63;;
31724;SDS011;18306;40.960;14.836;2023-05-14T06:55:58;16.65;;;3.83;;
31724;SDS011;18306;40.960;14.836;2023-05-14T06:58:25;8.35;;;2.85;;
31724;SDS011;18306;40.960;14.836;2023-05-14T07:00:52;10.10;;;3.45;;
31724;SDS011;18306;40.960;14.836;2023-05-14T07:03:19;32.80;;;3.47;;
31724;SDS011;18306;40.960;14.836;2023-05-14T07:05:47;10.38;;;3.33;;
31724;SDS011;18306;40.960;14.836;2023-05-14T07:08:14;14.48;;;3.17;;
31724;SDS011;18306;40.960;14.836;2023-05-14T07:10:41;18.33;;;3.75;;
31724;SDS011;18306;40.960;14.836;2023-05-14T07:13:08;25.90;;;3.88;;
31724;SDS011;18306;40.960;14.836;2023-05-14T07:15:36;11.20;;;3.13;;
31724;SDS011;18306;40.960;14.836;2023-05-14T07:18:02;17.50;;;3.90;;
31724;SDS011;18306;40.960;14.836;2023-05-14T07:20:30;15.13;;;3.72;;
31724;SDS011;18306;40.960;14.836;2023-05-14T07:22:57;22.45;;;4.25;;
31724;SDS011;18306;40.960;14.836;2023-05-14T07:25:24;14.20;;;3.45;;
31724;SDS011;18306;40.960;14.836;2023-05-14T07:27:51;12.80;;;3.70;;
31724;SDS011;18306;40.960;14.836;2023-05-14T07:30:18;12.48;;;3.45;;
31724;SDS011;18306;40.960;14.836;2023-05-14T07:32:45;12.45;;;3.15;;
31724;SDS011;18306;40.960;14.836;2023-05-14T07:35:12;20.90;;;4.28;;
31724;SDS011;18306;40.960;14.836;2023-05-14T07:37:40;15.20;;;4.00;;
31724;SDS011;18306;40.960;14.836;2023-05-14T07:40:08;12.55;;;3.50;;
31724;SDS011;18306;40.960;14.836;2023-05-14T07:42:35;10.65;;;3.13;;
31724;SDS011;18306;40.960;14.836;2023-05-14T07:45:03;11.50;;;2.78;;
31724;SDS011;18306;40.960;14.836;2023-05-14T07:47:31;12.13;;;3.83;;
31724;SDS011;18306;40.960;14.836;2023-05-14T07:49:58;10.95;;;4.05;;
31724;SDS011;18306;40.960;14.836;2023-05-14T07:52:25;13.18;;;3.15;;
31724;SDS011;18306;40.960;14.836;2023-05-14T07:54:55;38.53;;;4.65;;
31724;SDS011;18306;40.960;14.836;2023-05-14T07:57:29;12.95;;;3.80;;
31724;SDS011;18306;40.960;14.836;2023-05-14T07:59:56;15.98;;;3.88;;
31724;SDS011;18306;40.960;14.836;2023-05-14T08:02:24;16.00;;;3.95;;
31724;SDS011;18306;40.960;14.836;2023-05-14T08:04:51;12.82;;;3.95;;
31724;SDS011;18306;40.960;14.836;2023-05-14T08:07:18;14.73;;;3.63;;
31724;SDS011;18306;40.960;14.836;2023-05-14T08:09:49;7.32;;;3.42;;
31724;SDS011;18306;40.960;14.836;2023-05-14T08:12:16;17.42;;;4.22;;
31724;SDS011;18306;40.960;14.836;2023-05-14T08:14:43;20.83;;;4.85;;
31724;SDS011;18306;40.960;14.836;2023-05-14T08:17:11;14.25;;;3.45;;
31724;SDS011;18306;40.960;14.836;2023-05-14T08:19:38;14.20;;;4.30;;
31724;SDS011;18306;40.960;14.836;2023-05-14T08:22:05;10.77;;;3.95;;
31724;SDS011;18306;40.960;14.836;2023-05-14T08:24:32;22.58;;;5.15;;
31724;SDS011;18306;40.960;14.836;2023-05-14T08:26:59;19.67;;;4.25;;
31724;SDS011;18306;40.960;14.836;2023-05-14T08:29:29;12.93;;;4.53;;
31724;SDS011;18306;40.960;14.836;2023-05-14T08:31:56;25.92;;;4.10;;
31724;SDS011;18306;40.960;14.836;2023-05-14T08:34:25;14.98;;;3.80;;
31724;SDS011;18306;40.960;14.836;2023-05-14T08:36:53;18.00;;;4.60;;
31724;SDS011;18306;40.960;14.836;2023-05-14T08:39:21;26.63;;;4.57;;
31724;SDS011;18306;40.960;14.836;2023-05-14T08:41:49;21.45;;;4.63;;
31724;SDS011;18306;40.960;14.836;2023-05-14T08:44:17;25.95;;;5.18;;
31724;SDS011;18306;40.960;14.836;2023-05-14T08:46:46;15.98;;;4.13;;
31724;SDS011;18306;40.960;14.836;2023-05-14T08:52:07;17.27;;;4.57;;
31724;SDS011;18306;40.960;14.836;2023-05-14T08:54:35;12.75;;;3.83;;
31724;SDS011;18306;40.960;14.836;2023-05-14T08:57:02;16.92;;;3.88;;
31724;SDS011;18306;40.960;14.836;2023-05-14T08:59:30;16.50;;;3.67;;
31724;SDS011;18306;40.960;14.836;2023-05-14T09:01:57;16.15;;;4.57;;
31724;SDS011;18306;40.960;14.836;2023-05-14T09:04:27;17.25;;;4.70;;
31724;SDS011;18306;40.960;14.836;2023-05-14T09:06:55;19.92;;;4.70;;
31724;SDS011;18306;40.960;14.836;2023-05-14T09:09:22;25.52;;;5.28;;
31724;SDS011;18306;40.960;14.836;2023-05-14T09:11:50;14.95;;;4.78;;
31724;SDS011;18306;40.960;14.836;2023-05-14T09:14:24;13.65;;;4.38;;
31724;SDS011;18306;40.960;14.836;2023-05-14T09:16:51;22.35;;;4.47;;
31724;SDS011;18306;40.960;14.836;2023-05-14T09:19:20;18.75;;;4.70;;
31724;SDS011;18306;40.960;14.836;2023-05-14T09:21:47;22.92;;;5.32;;
31724;SDS011;18306;40.960;14.836;2023-05-14T09:24:19;24.13;;;5.97;;
31724;SDS011;18306;40.960;14.836;2023-05-14T09:26:57;29.73;;;5.22;;
31724;SDS011;18306;40.960;14.836;2023-05-14T09:29:25;32.35;;;6.22;;
31724;SDS011;18306;40.960;14.836;2023-05-14T09:31:54;22.90;;;4.25;;
31724;SDS011;18306;40.960;14.836;2023-05-14T09:34:26;19.55;;;5.70;;
31724;SDS011;18306;40.960;14.836;2023-05-14T09:39:32;18.27;;;4.97;;
31724;SDS011;18306;40.960;14.836;2023-05-14T09:42:01;21.75;;;5.43;;
31724;SDS011;18306;40.960;14.836;2023-05-14T09:44:29;36.78;;;5.32;;
31724;SDS011;18306;40.960;14.836;2023-05-14T09:46:57;17.15;;;4.82;;
31724;SDS011;18306;40.960;14.836;2023-05-14T09:49:24;31.98;;;5.70;;
31724;SDS011;18306;40.960;14.836;2023-05-14T09:51:51;36.25;;;5.57;;
31724;SDS011;18306;40.960;14.836;2023-05-14T09:54:19;22.27;;;5.50;;
31724;SDS011;18306;40.960;14.836;2023-05-14T09:56:46;19.00;;;4.65;;
31724;SDS011;18306;40.960;14.836;2023-05-14T09:59:13;29.38;;;5.50;;
31724;SDS011;18306;40.960;14.836;2023-05-14T10:01:41;23.08;;;6.13;;
31724;SDS011;18306;40.960;14.836;2023-05-14T10:04:09;46.17;;;6.45;;
31724;SDS011;18306;40.960;14.836;2023-05-14T10:06:42;19.00;;;4.72;;
31724;SDS011;18306;40.960;14.836;2023-05-14T10:09:12;33.10;;;6.30;;
31724;SDS011;18306;40.960;14.836;2023-05-14T10:11:42;19.20;;;5.97;;
31724;SDS011;18306;40.960;14.836;2023-05-14T10:14:19;20.75;;;5.47;;
31724;SDS011;18306;40.960;14.836;2023-05-14T10:16:52;27.15;;;5.75;;
31724;SDS011;18306;40.960;14.836;2023-05-14T10:19:22;27.17;;;5.13;;
31724;SDS011;18306;40.960;14.836;2023-05-14T10:22:02;31.95;;;6.80;;
31724;SDS011;18306;40.960;14.836;2023-05-14T10:24:32;23.77;;;6.72;;
31724;SDS011;18306;40.960;14.836;2023-05-14T10:27:00;25.73;;;5.63;;
31724;SDS011;18306;40.960;14.836;2023-05-14T10:29:35;30.63;;;6.03;;
31724;SDS011;18306;40.960;14.836;2023-05-14T10:32:05;30.35;;;5.68;;
31724;SDS011;18306;40.960;14.836;2023-05-14T10:34:39;37.55;;;6.97;;
31724;SDS011;18306;40.960;14.836;2023-05-14T10:37:09;24.83;;;6.05;;
31724;SDS011;18306;40.960;14.836;2023-05-14T10:42:22;16.38;;;5.82;;
31724;SDS011;18306;40.960;14.836;2023-05-14T10:44:53;22.38;;;4.80;;
31724;SDS011;18306;40.960;14.836;2023-05-14T10:47:24;25.42;;;5.03;;
31724;SDS011;18306;40.960;14.836;2023-05-14T10:49:53;42.10;;;6.45;;
31724;SDS011;18306;40.960;14.836;2023-05-14T10:52:24;30.30;;;6.72;;
31724;SDS011;18306;40.960;14.836;2023-05-14T10:54:53;17.38;;;5.43;;
31724;SDS011;18306;40.960;14.836;2023-05-14T10:57:21;20.08;;;5.00;;
31724;SDS011;18306;40.960;14.836;2023-05-14T10:59:51;32.25;;;5.45;;
31724;SDS011;18306;40.960;14.836;2023-05-14T11:02:29;14.93;;;5.50;;
31724;SDS011;18306;40.960;14.836;2023-05-14T11:05:04;13.10;;;5.18;;
31724;SDS011;18306;40.960;14.836;2023-05-14T11:07:37;19.33;;;4.95;;
31724;SDS011;18306;40.960;14.836;2023-05-14T11:10:10;17.17;;;4.87;;
31724;SDS011;18306;40.960;14.836;2023-05-14T11:12:39;23.13;;;5.28;;
31724;SDS011;18306;40.960;14.836;2023-05-14T11:15:09;16.85;;;4.88;;
31724;SDS011;18306;40.960;14.836;2023-05-14T11:17:41;20.00;;;4.65;;
31724;SDS011;18306;40.960;14.836;2023-05-14T11:20:13;21.65;;;4.93;;
31724;SDS011;18306;40.960;14.836;2023-05-14T11:22:41;12.93;;;5.00;;
31724;SDS011;18306;40.960;14.836;2023-05-14T11:25:10;17.02;;;5.57;;
31724;SDS011;18306;40.960;14.836;2023-05-14T11:27:44;33.80;;;5.00;;
31724;SDS011;18306;40.960;14.836;2023-05-14T11:30:16;23.95;;;4.70;;
31724;SDS011;18306;40.960;14.836;2023-05-14T11:32:58;29.27;;;5.50;;
31724;SDS011;18306;40.960;14.836;2023-05-14T11:35:35;15.60;;;5.57;;
31724;SDS011;18306;40.960;14.836;2023-05-14T11:38:15;24.67;;;5.90;;
31724;SDS011;18306;40.960;14.836;2023-05-14T11:41:04;28.33;;;5.40;;
31724;SDS011;18306;40.960;14.836;2023-05-14T11:43:31;16.90;;;4.78;;
31724;SDS011;18306;40.960;14.836;2023-05-14T11:46:01;25.13;;;5.88;;
31724;SDS011;18306;40.960;14.836;2023-05-14T11:48:29;15.80;;;5.03;;
31724;SDS011;18306;40.960;14.836;2023-05-14T11:50:58;13.13;;;4.30;;
31724;SDS011;18306;40.960;14.836;2023-05-14T11:53:26;20.23;;;5.28;;
31724;SDS011;18306;40.960;14.836;2023-05-14T11:55:55;33.83;;;5.20;;
31724;SDS011;18306;40.960;14.836;2023-05-14T11:58:25;10.98;;;4.28;;
31724;SDS011;18306;40.960;14.836;2023-05-14T12:00:52;17.42;;;4.72;;
31724;SDS011;18306;40.960;14.836;2023-05-14T12:03:22;32.72;;;5.45;;
31724;SDS011;18306;40.960;14.836;2023-05-14T12:05:55;21.30;;;4.33;;
31724;SDS011;18306;40.960;14.836;2023-05-14T12:08:30;27.80;;;5.45;;
31724;SDS011;18306;40.960;14.836;2023-05-14T12:10:58;13.45;;;4.45;;
31724;SDS011;18306;40.960;14.836;2023-05-14T12:13:26;14.93;;;5.28;;
31724;SDS011;18306;40.960;14.836;2023-05-14T12:15:56;14.48;;;4.43;;
31724;SDS011;18306;40.960;14.836;2023-05-14T12:18:34;24.30;;;5.85;;
31724;SDS011;18306;40.960;14.836;2023-05-14T12:21:02;32.78;;;5.55;;
31724;SDS011;18306;40.960;14.836;2023-05-14T12:23:31;18.05;;;5.30;;
31724;SDS011;18306;40.960;14.836;2023-05-14T12:26:04;39.70;;;5.75;;
31724;SDS011;18306;40.960;14.836;2023-05-14T12:28:33;22.83;;;4.60;;
31724;SDS011;18306;40.960;14.836;2023-05-14T12:31:01;13.75;;;4.15;;
31724;SDS011;18306;40.960;14.836;2023-05-14T12:33:29;23.90;;;5.53;;
31724;SDS011;18306;40.960;14.836;2023-05-14T12:35:56;17.40;;;4.05;;
31724;SDS011;18306;40.960;14.836;2023-05-14T12:38:27;38.45;;;5.40;;
31724;SDS011;18306;40.960;14.836;2023-05-14T12:40:57;21.45;;;4.50;;
31724;SDS011;18306;40.960;14.836;2023-05-14T12:46:37;25.05;;;5.45;;
31724;SDS011;18306;40.960;14.836;2023-05-14T12:49:15;10.02;;;4.47;;
31724;SDS011;18306;40.960;14.836;2023-05-14T12:51:49;12.85;;;4.55;;
31724;SDS011;18306;40.960;14.836;2023-05-14T12:54:22;10.25;;;3.55;;
31724;SDS011;18306;40.960;14.836;2023-05-14T12:56:55;7.68;;;3.42;;
31724;SDS011;18306;40.960;14.836;2023-05-14T12:59:24;17.90;;;4.80;;
31724;SDS011;18306;40.960;14.836;2023-05-14T13:01:53;12.68;;;3.60;;
31724;SDS011;18306;40.960;14.836;2023-05-14T13:04:22;22.05;;;3.90;;
31724;SDS011;18306;40.960;14.836;2023-05-14T13:07:11;13.23;;;3.78;;
31724;SDS011;18306;40.960;14.836;2023-05-14T13:09:45;15.93;;;3.40;;
31724;SDS011;18306;40.960;14.836;2023-05-14T13:12:24;8.18;;;2.78;;
31724;SDS011;18306;40.960;14.836;2023-05-14T13:14:52;5.65;;;3.03;;
31724;SDS011;18306;40.960;14.836;2023-05-14T13:17:19;8.48;;;3.78;;
31724;SDS011;18306;40.960;14.836;2023-05-14T13:19:56;8.98;;;3.42;;
31724;SDS011;18306;40.960;14.836;2023-05-14T13:22:26;9.25;;;3.10;;
31724;SDS011;18306;40.960;14.836;2023-05-14T13:25:02;8.30;;;3.53;;
31724;SDS011;18306;40.960;14.836;2023-05-14T13:27:30;15.75;;;4.28;;
31724;SDS011;18306;40.960;14.836;2023-05-14T13:30:03;13.15;;;3.25;;
31724;SDS011;18306;40.960;14.836;2023-05-14T13:32:40;10.32;;;3.05;;
31724;SDS011;18306;40.960;14.836;2023-05-14T13:35:19;3.47;;;2.33;;
31724;SDS011;18306;40.960;14.836;2023-05-14T13:37:49;7.65;;;3.53;;
31724;SDS011;18306;40.960;14.836;2023-05-14T13:40:21;11.48;;;3.03;;
31724;SDS011;18306;40.960;14.836;2023-05-14T13:42:54;16.40;;;3.13;;
31724;SDS011;18306;40.960;14.836;2023-05-14T13:45:26;18.15;;;3.22;;
31724;SDS011;18306;40.960;14.836;2023-05-14T13:47:53;13.30;;;3.13;;
31724;SDS011;18306;40.960;14.836;2023-05-14T13:50:23;12.68;;;3.08;;
31724;SDS011;18306;40.960;14.836;2023-05-14T13:52:50;7.22;;;3.35;;
31724;SDS011;18306;40.960;14.836;2023-05-14T13:55:27;14.93;;;3.85;;
31724;SDS011;18306;40.960;14.836;2023-05-14T13:58:01;11.90;;;4.05;;
31724;SDS011;18306;40.960;14.836;2023-05-14T14:00:38;10.10;;;3.00;;
31724;SDS011;18306;40.960;14.836;2023-05-14T14:03:10;14.13;;;3.80;;
31724;SDS011;18306;40.960;14.836;2023-05-14T14:05:37;5.72;;;3.13;;
31724;SDS011;18306;40.960;14.836;2023-05-14T14:08:07;19.15;;;4.88;;
31724;SDS011;18306;40.960;14.836;2023-05-14T14:10:34;12.57;;;3.25;;
31724;SDS011;18306;40.960;14.836;2023-05-14T14:13:02;29.50;;;4.88;;
31724;SDS011;18306;40.960;14.836;2023-05-14T14:15:30;16.55;;;4.18;;
31724;SDS011;18306;40.960;14.836;2023-05-14T14:17:57;13.90;;;4.95;;
31724;SDS011;18306;40.960;14.836;2023-05-14T14:20:25;23.67;;;4.57;;
31724;SDS011;18306;40.960;14.836;2023-05-14T14:22:54;14.10;;;4.60;;
31724;SDS011;18306;40.960;14.836;2023-05-14T14:25:21;21.88;;;4.50;;
31724;SDS011;18306;40.960;14.836;2023-05-14T14:27:53;21.75;;;4.35;;
31724;SDS011;18306;40.960;14.836;2023-05-14T14:30:20;18.70;;;4.55;;
31724;SDS011;18306;40.960;14.836;2023-05-14T14:32:47;17.42;;;4.25;;
31724;SDS011;18306;40.960;14.836;2023-05-14T14:35:16;13.35;;;5.05;;
31724;SDS011;18306;40.960;14.836;2023-05-14T14:37:45;19.52;;;5.40;;
31724;SDS011;18306;40.960;14.836;2023-05-14T14:40:17;21.58;;;5.05;;
31724;SDS011;18306;40.960;14.836;2023-05-14T14:42:45;19.35;;;5.35;;
31724;SDS011;18306;40.960;14.836;2023-05-14T14:45:12;17.83;;;5.57;;
31724;SDS011;18306;40.960;14.836;2023-05-14T14:47:42;21.55;;;5.55;;
31724;SDS011;18306;40.960;14.836;2023-05-14T14:50:11;16.25;;;4.00;;
31724;SDS011;18306;40.960;14.836;2023-05-14T14:52:39;16.48;;;5.20;;